Time,TemperatureF,DewpointF,PressureIn,WindDirection,WindDirectionDegrees,WindSpeedMPH,WindSpeedGustMPH,Humidity,HourlyPrecipIn,Conditions,Clouds,dailyrainin,SoftwareType,DateUTC
2013-09-27 00:00:00,47.5,46.1,30.11,ENE,76,0.0,0.0,95,0.00,CLR,,0.00,WeatherDisplay:10.37,2013-09-27 04:00:00,
2013-09-27 00:01:00,47.5,46.1,30.11,ENE,77,0.0,0.0,95,0.00,CLR,,0.00,WeatherDisplay:10.37,2013-09-27 04:01:00,
2013-09-27 00:02:00,47.5,46.1,30.11,ENE,77,0.0,0.0,95,0.00,CLR,,0.00,WeatherDisplay:10.37,2013-09-27 04:02:00,
2013-09-27 00:03:00,47.4,46.0,30.11,ENE,77,0.0,0.0,95,0.00,CLR,,0.00,WeatherDisplay:10.37,2013-09-27 04:03:00,
2013-09-27 00:08:00,47.3,45.9,30.11,ENE,77,0.0,0.0,95,0.00,CLR,,0.00,WeatherDisplay:10.37,2013-09-27 04:08:00,
2013-09-27 00:13:00,47.2,45.8,30.11,ENE,76,0.0,0.0,95,0.00,CLR,,0.00,WeatherDisplay:10.37,2013-09-27 04:13:00,
2013-09-27 00:18:00,47.1,45.7,30.11,ENE,76,0.0,0.0,95,0.00,CLR,,0.00,WeatherDisplay:10.37,2013-09-27 04:18:00,
2013-09-27 00:23:00,47.1,45.7,30.11,ENE,77,0.0,0.0,95,0.00,CLR,,0.00,WeatherDisplay:10.37,2013-09-27 04:23:00,
2013-09-27 00:28:00,47.1,45.7,30.11,ENE,77,0.0,0.0,95,0.00,CLR,,0.00,WeatherDisplay:10.37,2013-09-27 04:28:00,
2013-09-27 00:33:00,47.1,45.7,30.11,ENE,77,0.0,0.0,95,0.00,CLR,,0.00,WeatherDisplay:10.37,2013-09-27 04:33:00,
2013-09-27 00:38:00,47.1,45.7,30.11,ENE,77,0.0,0.0,95,0.00,CLR,,0.00,WeatherDisplay:10.37,2013-09-27 04:38:00,
2013-09-27 00:43:00,47.1,45.7,30.11,ENE,77,0.0,0.0,95,0.00,CLR,,0.00,WeatherDisplay:10.37,2013-09-27 04:43:00,
2013-09-27 00:48:00,47.0,45.6,30.11,ENE,76,0.0,0.0,95,0.00,CLR,,0.00,WeatherDisplay:10.37,2013-09-27 04:48:00,
2013-09-27 00:53:00,46.8,45.4,30.11,ENE,76,0.0,0.0,95,0.00,CLR,,0.00,WeatherDisplay:10.37,2013-09-27 04:53:00,
2013-09-27 00:58:00,46.7,45.6,30.11,ENE,76,0.0,0.0,96,0.00,CLR,,0.00,WeatherDisplay:10.37,2013-09-27 04:58:00,
2013-09-27 01:03:00,46.7,45.6,30.11,ENE,77,0.0,0.0,96,0.00,CLR,,0.00,WeatherDisplay:10.37,2013-09-27 05:03:00,
2013-09-27 01:08:00,46.6,45.5,30.11,ENE,76,0.0,0.0,96,0.00,CLR,,0.00,WeatherDisplay:10.37,2013-09-27 05:08:00,
2013-09-27 01:13:00,46.6,45.5,30.11,ENE,76,0.0,0.0,96,0.00,CLR,,0.00,WeatherDisplay:10.37,2013-09-27 05:13:00,
2013-09-27 01:18:00,46.5,45.4,30.11,ENE,77,0.0,0.0,96,0.00,CLR,,0.00,WeatherDisplay:10.37,2013-09-27 05:18:00,
2013-09-27 01:23:00,46.5,45.4,30.11,ENE,76,0.0,0.0,96,0.00,CLR,,0.00,WeatherDisplay:10.37,2013-09-27 05:23:00,
2013-09-27 01:28:00,46.4,45.3,30.11,ENE,76,0.0,0.0,96,0.00,CLR,,0.00,WeatherDisplay:10.37,2013-09-27 05:28:00,
2013-09-27 01:33:00,46.3,45.2,30.11,ENE,76,0.0,0.0,96,0.00,CLR,,0.00,WeatherDisplay:10.37,2013-09-27 05:33:00,
2013-09-27 01:38:00,46.2,45.1,30.11,ENE,77,0.0,0.0,96,0.00,CLR,,0.00,WeatherDisplay:10.37,2013-09-27 05:38:00,
2013-09-27 01:43:00,46.1,45.0,30.11,ENE,77,0.0,0.0,96,0.00,CLR,,0.00,WeatherDisplay:10.37,2013-09-27 05:43:00,
2013-09-27 01:48:00,45.9,44.8,30.12,ENE,76,0.0,0.0,96,0.00,CLR,,0.00,WeatherDisplay:10.37,2013-09-27 05:48:00,
2013-09-27 01:53:00,45.7,44.6,30.12,ENE,77,0.0,0.0,96,0.00,CLR,,0.00,WeatherDisplay:10.37,2013-09-27 05:53:00,
2013-09-27 01:58:00,45.5,44.4,30.12,ENE,76,0.0,0.0,96,0.00,CLR,,0.00,WeatherDisplay:10.37,2013-09-27 05:58:00,
2013-09-27 02:03:00,45.3,44.2,30.12,ENE,76,0.0,0.0,96,0.00,CLR,,0.00,WeatherDisplay:10.37,2013-09-27 06:03:00,
2013-09-27 02:08:00,45.1,44.0,30.13,ENE,76,0.0,0.0,96,0.00,CLR,,0.00,WeatherDisplay:10.37,2013-09-27 06:08:00,
2013-09-27 02:13:00,45.0,43.9,30.13,ENE,77,0.0,0.0,96,0.00,CLR,,0.00,WeatherDisplay:10.37,2013-09-27 06:13:00,
2013-09-27 02:18:00,45.0,43.9,30.13,ENE,77,0.0,0.0,96,0.00,CLR,,0.00,WeatherDisplay:10.37,2013-09-27 06:18:00,
2013-09-27 02:23:00,44.8,43.7,30.13,ENE,77,0.0,0.0,96,0.00,CLR,,0.00,WeatherDisplay:10.37,2013-09-27 06:23:00,
2013-09-27 02:28:00,44.7,43.6,30.13,ENE,76,0.0,0.0,96,0.00,CLR,,0.00,WeatherDisplay:10.37,2013-09-27 06:28:00,
2013-09-27 02:33:00,44.8,43.7,30.13,ENE,77,0.0,0.0,96,0.00,CLR,,0.00,WeatherDisplay:10.37,2013-09-27 06:33:00,
2013-09-27 02:38:00,44.8,43.7,30.13,ENE,76,0.0,0.0,96,0.00,CLR,,0.00,WeatherDisplay:10.37,2013-09-27 06:38:00,
2013-09-27 02:43:00,44.7,43.6,30.13,ENE,76,0.0,0.0,96,0.00,CLR,,0.00,WeatherDisplay:10.37,2013-09-27 06:43:00,
2013-09-27 02:48:00,44.5,43.4,30.13,ENE,77,0.0,0.0,96,0.00,CLR,,0.00,WeatherDisplay:10.37,2013-09-27 06:48:00,
2013-09-27 02:53:00,44.3,43.2,30.14,ENE,77,0.0,0.0,96,0.00,CLR,,0.00,WeatherDisplay:10.37,2013-09-27 06:53:00,
2013-09-27 02:58:00,44.2,43.1,30.14,ENE,77,0.0,0.0,96,0.00,CLR,,0.00,WeatherDisplay:10.37,2013-09-27 06:58:00,
2013-09-27 03:03:00,44.0,42.9,30.14,ENE,77,0.0,0.0,96,0.00,CLR,,0.00,WeatherDisplay:10.37,2013-09-27 07:03:00,
2013-09-27 03:08:00,44.0,42.9,30.14,ENE,77,0.0,0.0,96,0.00,CLR,,0.00,WeatherDisplay:10.37,2013-09-27 07:08:00,
2013-09-27 03:13:00,43.9,42.8,30.14,ENE,77,0.0,0.0,96,0.00,CLR,,0.00,WeatherDisplay:10.37,2013-09-27 07:13:00,
2013-09-27 03:18:00,43.9,43.1,30.14,ENE,76,0.0,0.0,97,0.00,CLR,,0.00,WeatherDisplay:10.37,2013-09-27 07:18:00,
2013-09-27 03:23:00,43.8,42.7,30.14,ENE,76,0.0,0.0,96,0.00,CLR,,0.00,WeatherDisplay:10.37,2013-09-27 07:23:00,
2013-09-27 03:28:00,43.8,42.7,30.14,ENE,76,0.0,0.0,96,0.00,CLR,,0.00,WeatherDisplay:10.37,2013-09-27 07:28:00,
2013-09-27 03:33:00,43.8,42.7,30.14,ENE,77,0.0,0.0,96,0.00,CLR,,0.00,WeatherDisplay:10.37,2013-09-27 07:33:00,
2013-09-27 03:38:00,43.8,42.7,30.14,ENE,77,0.0,0.0,96,0.00,CLR,,0.00,WeatherDisplay:10.37,2013-09-27 07:38:00,
2013-09-27 03:43:00,43.7,42.6,30.14,ENE,76,0.0,0.0,96,0.00,CLR,,0.00,WeatherDisplay:10.37,2013-09-27 07:43:00,
2013-09-27 03:48:00,43.6,42.8,30.14,ENE,77,0.0,0.0,97,0.00,CLR,,0.00,WeatherDisplay:10.37,2013-09-27 07:48:00,
2013-09-27 03:51:00,43.6,42.8,30.14,ENE,77,0.0,0.0,97,0.00,CLR,,0.00,WeatherDisplay:10.37,2013-09-27 07:51:00,
2013-09-27 03:56:00,43.7,42.9,30.14,ENE,77,0.0,0.0,97,0.00,CLR,,0.00,WeatherDisplay:10.37,2013-09-27 07:56:00,
2013-09-27 04:01:00,43.7,42.9,30.14,ENE,77,0.0,0.0,97,0.00,CLR,,0.00,WeatherDisplay:10.37,2013-09-27 08:01:00,
2013-09-27 04:06:00,43.6,42.8,30.14,ENE,77,0.0,0.0,97,0.00,CLR,,0.00,WeatherDisplay:10.37,2013-09-27 08:06:00,
2013-09-27 04:11:00,43.5,42.7,30.14,ENE,77,0.0,0.0,97,0.00,CLR,,0.00,WeatherDisplay:10.37,2013-09-27 08:11:00,
2013-09-27 04:16:00,43.5,42.7,30.14,ENE,77,0.0,0.0,97,0.00,CLR,,0.00,WeatherDisplay:10.37,2013-09-27 08:16:00,
2013-09-27 04:21:00,43.4,42.6,30.14,ENE,77,0.0,0.0,97,0.00,CLR,,0.00,WeatherDisplay:10.37,2013-09-27 08:21:00,
2013-09-27 04:26:00,43.3,42.5,30.15,ENE,77,0.0,0.0,97,0.00,CLR,,0.00,WeatherDisplay:10.37,2013-09-27 08:26:00,
2013-09-27 04:31:00,43.2,42.4,30.15,ENE,76,0.0,0.0,97,0.00,CLR,,0.00,WeatherDisplay:10.37,2013-09-27 08:31:00,
2013-09-27 04:36:00,43.2,42.4,30.15,ENE,77,0.0,0.0,97,0.00,CLR,,0.00,WeatherDisplay:10.37,2013-09-27 08:36:00,
2013-09-27 04:41:00,43.1,42.3,30.15,ENE,77,0.0,0.0,97,0.00,CLR,,0.00,WeatherDisplay:10.37,2013-09-27 08:41:00,
2013-09-27 04:46:00,43.1,42.3,30.15,ENE,76,0.0,0.0,97,0.00,CLR,,0.00,WeatherDisplay:10.37,2013-09-27 08:46:00,
2013-09-27 04:51:00,43.0,42.2,30.15,ENE,77,0.0,0.0,97,0.00,CLR,,0.00,WeatherDisplay:10.37,2013-09-27 08:51:00,
2013-09-27 04:56:00,42.9,42.1,30.15,ENE,77,0.0,0.0,97,0.00,CLR,,0.00,WeatherDisplay:10.37,2013-09-27 08:56:00,
2013-09-27 05:01:00,42.7,41.9,30.15,ENE,77,0.0,0.0,97,0.00,CLR,,0.00,WeatherDisplay:10.37,2013-09-27 09:01:00,
2013-09-27 05:06:00,42.4,41.6,30.15,ENE,77,0.0,0.0,97,0.00,CLR,,0.00,WeatherDisplay:10.37,2013-09-27 09:06:00,
2013-09-27 05:11:00,42.1,41.3,30.16,ENE,77,0.0,0.0,97,0.00,CLR,,0.00,WeatherDisplay:10.37,2013-09-27 09:11:00,
2013-09-27 05:16:00,41.9,41.1,30.16,ENE,77,0.0,0.0,97,0.00,CLR,,0.00,WeatherDisplay:10.37,2013-09-27 09:16:00,
2013-09-27 05:21:00,41.7,40.9,30.16,ENE,76,0.0,0.0,97,0.00,CLR,,0.00,WeatherDisplay:10.37,2013-09-27 09:21:00,
2013-09-27 05:26:00,41.6,40.5,30.16,ENE,77,0.0,0.0,96,0.00,CLR,,0.00,WeatherDisplay:10.37,2013-09-27 09:26:00,
2013-09-27 05:31:00,41.5,40.7,30.16,ENE,76,0.0,0.0,97,0.00,CLR,,0.00,WeatherDisplay:10.37,2013-09-27 09:31:00,
2013-09-27 05:36:00,41.4,40.6,30.16,ENE,77,0.0,0.0,97,0.00,CLR,,0.00,WeatherDisplay:10.37,2013-09-27 09:36:00,
2013-09-27 05:41:00,41.5,40.7,30.16,ENE,77,0.0,0.0,97,0.00,CLR,,0.00,WeatherDisplay:10.37,2013-09-27 09:41:00,
2013-09-27 05:46:00,41.6,40.8,30.16,ENE,76,0.0,0.0,97,0.00,CLR,,0.00,WeatherDisplay:10.37,2013-09-27 09:46:00,
2013-09-27 05:51:00,41.6,40.8,30.16,ENE,77,0.0,0.0,97,0.00,CLR,,0.00,WeatherDisplay:10.37,2013-09-27 09:51:00,
2013-09-27 05:56:00,41.6,40.8,30.16,ENE,77,0.0,0.0,97,0.00,CLR,,0.00,WeatherDisplay:10.37,2013-09-27 09:56:00,
2013-09-27 06:01:00,41.6,40.8,30.16,ENE,77,0.0,0.0,97,0.00,CLR,,0.00,WeatherDisplay:10.37,2013-09-27 10:01:00,
2013-09-27 06:06:00,41.6,40.8,30.16,ENE,76,0.0,0.0,97,0.00,CLR,,0.00,WeatherDisplay:10.37,2013-09-27 10:06:00,
2013-09-27 06:11:00,41.6,40.8,30.16,ENE,77,0.0,0.0,97,0.00,CLR,,0.00,WeatherDisplay:10.37,2013-09-27 10:11:00,
2013-09-27 06:16:00,41.5,40.7,30.16,ENE,77,0.0,0.0,97,0.00,CLR,,0.00,WeatherDisplay:10.37,2013-09-27 10:16:00,
2013-09-27 06:21:00,41.3,40.5,30.16,ENE,77,0.0,0.0,97,0.00,CLR,,0.00,WeatherDisplay:10.37,2013-09-27 10:21:00,
2013-09-27 06:26:00,41.1,40.3,30.16,ENE,77,0.0,0.0,97,0.00,CLR,,0.00,WeatherDisplay:10.37,2013-09-27 10:26:00,
2013-09-27 06:31:00,40.9,40.1,30.16,ENE,77,0.0,0.0,97,0.00,CLR,,0.00,WeatherDisplay:10.37,2013-09-27 10:31:00,
2013-09-27 06:36:00,40.7,39.9,30.16,ENE,77,0.0,0.0,97,0.00,CLR,,0.00,WeatherDisplay:10.37,2013-09-27 10:36:00,
2013-09-27 06:41:00,40.7,39.9,30.17,ENE,77,0.0,0.0,97,0.00,CLR,,0.00,WeatherDisplay:10.37,2013-09-27 10:41:00,
2013-09-27 06:46:00,40.6,39.8,30.17,ENE,77,0.0,0.0,97,0.01,RA,,0.01,WeatherDisplay:10.37,2013-09-27 10:46:00,
2013-09-27 06:51:00,40.5,39.7,30.17,ENE,77,0.0,0.0,97,0.01,RA,,0.01,WeatherDisplay:10.37,2013-09-27 10:51:00,
2013-09-27 06:56:00,40.4,39.6,30.17,ENE,77,0.0,0.0,97,0.01,CLR,,0.01,WeatherDisplay:10.37,2013-09-27 10:56:00,
2013-09-27 07:01:00,40.3,39.5,30.17,ENE,76,0.0,0.0,97,0.01,CLR,,0.01,WeatherDisplay:10.37,2013-09-27 11:01:00,
2013-09-27 07:06:00,40.3,39.5,30.17,ENE,77,0.0,0.0,97,0.01,CLR,,0.01,WeatherDisplay:10.37,2013-09-27 11:06:00,
2013-09-27 07:11:00,40.3,39.5,30.17,ENE,77,0.0,0.0,97,0.01,CLR,,0.01,WeatherDisplay:10.37,2013-09-27 11:11:00,
2013-09-27 07:16:00,40.4,39.6,30.18,ENE,77,0.0,0.0,97,0.01,CLR,,0.01,WeatherDisplay:10.37,2013-09-27 11:16:00,
2013-09-27 07:21:00,40.3,39.5,30.17,ENE,76,0.0,0.0,97,0.01,CLR,,0.01,WeatherDisplay:10.37,2013-09-27 11:21:00,
2013-09-27 07:26:00,40.4,39.6,30.18,ENE,76,0.0,0.0,97,0.01,CLR,,0.01,WeatherDisplay:10.37,2013-09-27 11:26:00,
2013-09-27 07:31:00,40.4,39.6,30.18,ENE,77,0.0,0.0,97,0.01,CLR,,0.01,WeatherDisplay:10.37,2013-09-27 11:31:00,
2013-09-27 07:36:00,40.4,39.6,30.18,ENE,76,0.0,0.0,97,0.01,CLR,,0.01,WeatherDisplay:10.37,2013-09-27 11:36:00,
2013-09-27 07:41:00,40.2,39.4,30.18,ENE,77,0.0,0.0,97,0.01,CLR,,0.01,WeatherDisplay:10.37,2013-09-27 11:41:00,
2013-09-27 07:46:00,40.2,39.4,30.18,ENE,77,0.0,0.0,97,0.00,CLR,,0.01,WeatherDisplay:10.37,2013-09-27 11:46:00,
2013-09-27 07:51:00,40.2,39.4,30.18,ENE,77,0.0,0.0,97,0.00,CLR,,0.01,WeatherDisplay:10.37,2013-09-27 11:51:00,
2013-09-27 07:56:00,40.4,39.6,30.19,ENE,76,0.0,0.0,97,0.00,CLR,,0.01,WeatherDisplay:10.37,2013-09-27 11:56:00,
2013-09-27 08:01:00,40.4,39.6,30.19,ENE,76,0.0,0.0,97,0.00,CLR,,0.01,WeatherDisplay:10.37,2013-09-27 12:01:00,
2013-09-27 08:06:00,40.5,39.7,30.19,ENE,77,0.0,0.0,97,0.00,CLR,,0.01,WeatherDisplay:10.37,2013-09-27 12:06:00,
2013-09-27 08:11:00,40.4,39.6,30.19,ENE,76,0.0,0.0,97,0.00,CLR,,0.01,WeatherDisplay:10.37,2013-09-27 12:11:00,
2013-09-27 08:16:00,40.5,39.7,30.19,ENE,77,0.0,0.0,97,0.00,CLR,,0.01,WeatherDisplay:10.37,2013-09-27 12:16:00,
2013-09-27 08:21:00,40.7,39.9,30.19,ENE,77,0.0,0.0,97,0.00,CLR,,0.01,WeatherDisplay:10.37,2013-09-27 12:21:00,
2013-09-27 08:26:00,41.0,40.2,30.19,ENE,77,0.0,0.0,97,0.00,CLR,,0.01,WeatherDisplay:10.37,2013-09-27 12:26:00,
2013-09-27 08:31:00,41.2,40.4,30.19,ENE,77,0.0,0.0,97,0.00,CLR,,0.01,WeatherDisplay:10.37,2013-09-27 12:31:00,
2013-09-27 08:36:00,41.5,41.0,30.19,ENE,76,0.0,0.0,98,0.00,CLR,,0.01,WeatherDisplay:10.37,2013-09-27 12:36:00,
2013-09-27 08:41:00,41.9,41.1,30.19,ENE,77,0.0,0.0,97,0.00,CLR,,0.01,WeatherDisplay:10.37,2013-09-27 12:41:00,
2013-09-27 08:46:00,42.4,41.9,30.19,ENE,77,0.0,0.0,98,0.00,CLR,,0.01,WeatherDisplay:10.37,2013-09-27 12:46:00,
2013-09-27 08:51:00,43.0,42.5,30.19,ENE,77,0.0,0.0,98,0.00,CLR,,0.01,WeatherDisplay:10.37,2013-09-27 12:51:00,
2013-09-27 08:56:00,43.7,43.2,30.19,ENE,77,0.0,0.0,98,0.00,CLR,,0.01,WeatherDisplay:10.37,2013-09-27 12:56:00,
2013-09-27 09:01:00,44.2,43.7,30.19,ENE,77,0.0,0.0,98,0.00,CLR,,0.01,WeatherDisplay:10.37,2013-09-27 13:01:00,
2013-09-27 09:06:00,44.7,44.2,30.19,ENE,77,0.0,0.0,98,0.00,CLR,,0.01,WeatherDisplay:10.37,2013-09-27 13:06:00,
2013-09-27 09:11:00,45.3,44.8,30.19,ENE,77,0.0,0.0,98,0.00,CLR,,0.01,WeatherDisplay:10.37,2013-09-27 13:11:00,
2013-09-27 09:16:00,45.9,45.4,30.19,ENE,77,0.0,0.0,98,0.00,CLR,,0.01,WeatherDisplay:10.37,2013-09-27 13:16:00,
2013-09-27 09:21:00,46.9,46.4,30.20,ENE,77,0.0,0.0,98,0.00,CLR,,0.01,WeatherDisplay:10.37,2013-09-27 13:21:00,
2013-09-27 09:26:00,47.9,47.4,30.19,ENE,76,0.0,0.0,98,0.00,CLR,,0.01,WeatherDisplay:10.37,2013-09-27 13:26:00,
2013-09-27 09:31:00,48.7,48.2,30.19,ENE,77,0.0,0.0,98,0.00,CLR,,0.01,WeatherDisplay:10.37,2013-09-27 13:31:00,
2013-09-27 09:36:00,49.9,49.4,30.19,ENE,77,0.0,0.0,98,0.00,CLR,,0.01,WeatherDisplay:10.37,2013-09-27 13:36:00,
2013-09-27 09:41:00,50.9,50.4,30.19,ENE,77,0.0,0.0,98,0.00,CLR,,0.01,WeatherDisplay:10.37,2013-09-27 13:41:00,
2013-09-27 09:46:00,51.8,51.3,30.19,ENE,77,0.0,0.0,98,0.00,CLR,,0.01,WeatherDisplay:10.37,2013-09-27 13:46:00,
2013-09-27 09:51:00,52.5,52.0,30.19,ENE,76,0.0,0.0,98,0.00,CLR,,0.01,WeatherDisplay:10.37,2013-09-27 13:51:00,
2013-09-27 09:56:00,53.0,52.5,30.20,ENE,77,0.0,0.0,98,0.00,CLR,,0.01,WeatherDisplay:10.37,2013-09-27 13:56:00,
2013-09-27 10:01:00,53.4,52.8,30.20,ENE,76,0.0,0.0,98,0.00,CLR,,0.01,WeatherDisplay:10.37,2013-09-27 14:01:00,
2013-09-27 10:06:00,54.0,53.2,30.20,ENE,77,0.0,0.0,97,0.00,CLR,,0.01,WeatherDisplay:10.37,2013-09-27 14:06:00,
2013-09-27 10:11:00,54.8,54.0,30.20,ENE,76,0.0,0.0,97,0.00,CLR,,0.01,WeatherDisplay:10.37,2013-09-27 14:11:00,
2013-09-27 10:16:00,56.4,55.6,30.20,ENE,77,0.0,0.0,97,0.00,CLR,,0.01,WeatherDisplay:10.37,2013-09-27 14:16:00,
2013-09-27 10:21:00,57.5,56.1,30.20,ENE,77,0.0,0.0,95,0.00,CLR,,0.01,WeatherDisplay:10.37,2013-09-27 14:21:00,
2013-09-27 10:26:00,58.3,56.0,30.20,ENE,76,0.0,0.0,92,0.00,CLR,,0.01,WeatherDisplay:10.37,2013-09-27 14:26:00,
2013-09-27 10:31:00,59.0,56.4,30.19,ENE,77,0.0,0.0,91,0.00,CLR,,0.01,WeatherDisplay:10.37,2013-09-27 14:31:00,
2013-09-27 10:36:00,60.5,56.9,30.19,ENE,77,0.0,0.0,88,0.00,CLR,,0.01,WeatherDisplay:10.37,2013-09-27 14:36:00,
2013-09-27 10:41:00,61.4,56.2,30.19,ENE,77,0.0,0.0,83,0.00,CLR,,0.01,WeatherDisplay:10.37,2013-09-27 14:41:00,
2013-09-27 10:46:00,62.4,56.5,30.19,ENE,77,0.0,0.0,81,0.00,CLR,,0.01,WeatherDisplay:10.37,2013-09-27 14:46:00,
2013-09-27 10:51:00,63.2,56.6,30.20,ENE,77,0.0,0.0,79,0.00,CLR,,0.01,WeatherDisplay:10.37,2013-09-27 14:51:00,
2013-09-27 10:56:00,63.9,56.5,30.20,ENE,77,0.0,0.0,77,0.00,CLR,,0.01,WeatherDisplay:10.37,2013-09-27 14:56:00,
2013-09-27 11:01:00,64.2,56.5,30.20,ENE,76,0.0,0.0,76,0.00,CLR,,0.01,WeatherDisplay:10.37,2013-09-27 15:01:00,
2013-09-27 11:06:00,64.9,56.8,30.19,ENE,77,0.0,0.0,75,0.00,CLR,,0.01,WeatherDisplay:10.37,2013-09-27 15:06:00,
2013-09-27 11:11:00,65.0,56.9,30.20,ENE,77,0.0,0.0,75,0.00,CLR,,0.01,WeatherDisplay:10.37,2013-09-27 15:11:00,
2013-09-27 11:16:00,65.5,57.0,30.20,ENE,77,0.0,0.0,74,0.00,CLR,,0.01,WeatherDisplay:10.37,2013-09-27 15:16:00,
2013-09-27 11:21:00,66.2,56.5,30.20,ENE,77,0.0,0.0,71,0.00,CLR,,0.01,WeatherDisplay:10.37,2013-09-27 15:21:00,
2013-09-27 11:26:00,66.7,56.6,30.19,ENE,76,0.0,0.0,70,0.00,CLR,,0.01,WeatherDisplay:10.37,2013-09-27 15:26:00,
2013-09-27 11:31:00,67.0,56.5,30.19,ENE,77,0.0,0.0,69,0.00,CLR,,0.01,WeatherDisplay:10.37,2013-09-27 15:31:00,
2013-09-27 11:36:00,67.1,56.6,30.19,East,79,2.3,2.3,69,0.00,CLR,,0.01,WeatherDisplay:10.37,2013-09-27 15:36:00,
2013-09-27 11:41:00,66.8,56.7,30.19,East,79,0.0,0.0,70,0.00,CLR,,0.01,WeatherDisplay:10.37,2013-09-27 15:41:00,
2013-09-27 11:46:00,67.2,57.1,30.20,East,79,0.0,0.0,70,0.00,CLR,,0.01,WeatherDisplay:10.37,2013-09-27 15:46:00,
2013-09-27 11:51:00,67.9,56.1,30.19,East,79,0.0,0.0,66,0.00,CLR,,0.01,WeatherDisplay:10.37,2013-09-27 15:51:00,
2013-09-27 11:56:00,68.5,57.1,30.19,East,79,1.1,1.1,67,0.00,CLR,,0.01,WeatherDisplay:10.37,2013-09-27 15:56:00,
2013-09-27 12:01:00,68.8,57.4,30.19,East,81,0.0,0.0,67,0.00,CLR,,0.01,WeatherDisplay:10.37,2013-09-27 16:01:00,
2013-09-27 12:06:00,68.9,57.1,30.19,East,81,0.0,0.0,66,0.00,CLR,,0.01,WeatherDisplay:10.37,2013-09-27 16:06:00,
2013-09-27 12:11:00,69.3,55.7,30.19,ESE,109,3.5,3.5,62,0.00,CLR,,0.01,WeatherDisplay:10.37,2013-09-27 16:11:00,
2013-09-27 12:16:00,69.9,55.8,30.19,ESE,109,0.0,0.0,61,0.00,CLR,,0.01,WeatherDisplay:10.37,2013-09-27 16:16:00,
2013-09-27 12:21:00,70.3,56.7,30.19,ESE,113,3.5,3.5,62,0.00,CLR,,0.01,WeatherDisplay:10.37,2013-09-27 16:21:00,
2013-09-27 12:26:00,70.6,56.0,30.19,ESE,117,0.0,0.0,60,0.00,CLR,,0.01,WeatherDisplay:10.37,2013-09-27 16:26:00,
2013-09-27 12:31:00,70.8,56.7,30.19,ESE,121,0.0,0.0,61,0.00,CLR,,0.01,WeatherDisplay:10.37,2013-09-27 16:31:00,
2013-09-27 12:36:00,71.1,57.0,30.19,ESE,121,0.0,0.0,61,0.00,CLR,,0.01,WeatherDisplay:10.37,2013-09-27 16:36:00,
2013-09-27 12:41:00,71.5,56.4,30.18,ESE,121,0.0,0.0,59,0.00,CLR,,0.01,WeatherDisplay:10.37,2013-09-27 16:41:00,
2013-09-27 12:46:00,71.6,55.6,30.19,SE,136,1.1,1.1,57,0.00,CLR,,0.01,WeatherDisplay:10.37,2013-09-27 16:46:00,
2013-09-27 12:51:00,71.6,55.1,30.18,SE,136,0.0,0.0,56,0.00,CLR,,0.01,WeatherDisplay:10.37,2013-09-27 16:51:00,
2013-09-27 12:56:00,71.7,56.1,30.19,SSE,160,0.0,0.0,58,0.00,CLR,,0.01,WeatherDisplay:10.37,2013-09-27 16:56:00,
2013-09-27 13:01:00,72.3,56.2,30.19,SSE,161,0.0,0.0,57,0.00,CLR,,0.01,WeatherDisplay:10.37,2013-09-27 17:01:00,
2013-09-27 13:06:00,72.5,56.4,30.18,SSE,158,3.0,3.0,57,0.00,CLR,,0.01,WeatherDisplay:10.37,2013-09-27 17:06:00,
2013-09-27 13:11:00,73.0,56.9,30.18,SSE,158,1.0,0.0,57,0.00,CLR,,0.01,WeatherDisplay:10.37,2013-09-27 17:11:00,
2013-09-27 13:16:00,73.1,56.0,30.18,SSE,156,2.3,2.3,55,0.00,CLR,,0.01,WeatherDisplay:10.37,2013-09-27 17:16:00,
2013-09-27 13:21:00,72.8,55.7,30.18,SE,136,1.1,1.1,55,0.00,CLR,,0.01,WeatherDisplay:10.37,2013-09-27 17:21:00,
2013-09-27 13:26:00,72.8,55.7,30.18,SE,144,4.0,4.0,55,0.00,CLR,,0.01,WeatherDisplay:10.37,2013-09-27 17:26:00,
2013-09-27 13:28:00,72.8,55.7,30.18,SSE,149,1.1,1.1,55,0.00,CLR,,0.01,WeatherDisplay:10.37,2013-09-27 17:28:00,
2013-09-27 13:33:00,72.4,55.3,30.18,South,175,4.6,4.6,55,0.00,CLR,,0.01,WeatherDisplay:10.37,2013-09-27 17:33:00,
2013-09-27 13:38:00,72.4,55.3,30.18,South,171,3.5,3.5,55,0.00,CLR,,0.01,WeatherDisplay:10.37,2013-09-27 17:38:00,
2013-09-27 13:43:00,72.3,55.2,30.18,South,180,1.1,1.1,55,0.00,CLR,,0.01,WeatherDisplay:10.37,2013-09-27 17:43:00,
2013-09-27 13:48:00,72.9,56.3,30.18,South,179,0.0,0.0,56,0.00,CLR,,0.01,WeatherDisplay:10.37,2013-09-27 17:48:00,
2013-09-27 13:53:00,73.5,56.8,30.18,South,174,3.0,3.0,56,0.00,CLR,,0.01,WeatherDisplay:10.37,2013-09-27 17:53:00,
2013-09-27 13:58:00,73.4,56.2,30.17,South,177,1.1,1.1,55,0.00,CLR,,0.01,WeatherDisplay:10.37,2013-09-27 17:58:00,
2013-09-27 14:03:00,73.9,56.2,30.17,South,176,3.0,3.0,54,0.00,CLR,,0.01,WeatherDisplay:10.37,2013-09-27 18:03:00,
2013-09-27 14:08:00,73.7,55.5,30.17,SSE,165,4.6,4.6,53,0.00,CLR,,0.01,WeatherDisplay:10.37,2013-09-27 18:08:00,
2013-09-27 14:13:00,73.9,56.7,30.17,SSE,165,1.1,0.0,55,0.00,CLR,,0.01,WeatherDisplay:10.37,2013-09-27 18:13:00,
2013-09-27 14:18:00,74.6,56.9,30.17,SSE,166,1.1,0.0,54,0.00,CLR,,0.01,WeatherDisplay:10.37,2013-09-27 18:18:00,
2013-09-27 14:23:00,75.0,56.2,30.16,SSE,151,6.9,6.9,52,0.00,CLR,,0.01,WeatherDisplay:10.37,2013-09-27 18:23:00,
2013-09-27 14:28:00,74.6,55.8,30.16,SSE,152,1.1,1.1,52,0.00,CLR,,0.01,WeatherDisplay:10.37,2013-09-27 18:28:00,
2013-09-27 14:33:00,74.9,55.6,30.16,SSE,152,0.0,0.0,51,0.00,CLR,,0.01,WeatherDisplay:10.37,2013-09-27 18:33:00,
2013-09-27 14:38:00,75.3,55.9,30.16,SSE,153,1.1,0.0,51,0.00,CLR,,0.01,WeatherDisplay:10.37,2013-09-27 18:38:00,
2013-09-27 14:43:00,75.2,54.7,30.16,ENE,65,3.5,3.5,49,0.00,CLR,,0.01,WeatherDisplay:10.37,2013-09-27 18:43:00,
2013-09-27 14:48:00,75.2,55.3,30.16,ENE,64,3.5,3.5,50,0.00,CLR,,0.01,WeatherDisplay:10.37,2013-09-27 18:48:00,
2013-09-27 14:53:00,75.7,56.3,30.15,ENE,74,1.1,1.1,51,0.00,CLR,,0.01,WeatherDisplay:10.37,2013-09-27 18:53:00,
2013-09-27 14:58:00,75.5,55.0,30.15,SE,124,1.1,0.0,49,0.00,CLR,,0.01,WeatherDisplay:10.37,2013-09-27 18:58:00,
2013-09-27 15:03:00,75.3,54.8,30.15,SE,133,3.5,3.5,49,0.00,CLR,,0.01,WeatherDisplay:10.37,2013-09-27 19:03:00,
2013-09-27 15:08:00,74.9,54.4,30.15,SSE,152,2.3,2.3,49,0.00,CLR,,0.01,WeatherDisplay:10.37,2013-09-27 19:08:00,
2013-09-27 15:13:00,75.3,54.3,30.15,SSE,152,3.5,0.0,48,0.00,CLR,,0.01,WeatherDisplay:10.37,2013-09-27 19:13:00,
2013-09-27 15:18:00,75.6,55.1,30.15,SSE,152,1.1,0.0,49,0.00,CLR,,0.01,WeatherDisplay:10.37,2013-09-27 19:18:00,
2013-09-27 15:23:00,75.8,55.3,30.15,SSE,152,0.0,0.2,49,0.00,CLR,,0.01,WeatherDisplay:10.37,2013-09-27 19:23:00,
2013-09-27 15:28:00,76.4,56.4,30.15,SSE,153,0.0,0.0,50,0.00,CLR,,0.01,WeatherDisplay:10.37,2013-09-27 19:28:00,
2013-09-27 15:33:00,76.4,56.4,30.14,SSE,153,3.5,3.5,50,0.00,CLR,,0.01,WeatherDisplay:10.37,2013-09-27 19:33:00,
2013-09-27 15:38:00,76.8,57.3,30.14,SSE,152,1.0,1.0,51,0.00,CLR,,0.01,WeatherDisplay:10.37,2013-09-27 19:38:00,
2013-09-27 15:43:00,76.6,57.7,30.14,SE,145,3.5,3.5,52,0.00,CLR,,0.01,WeatherDisplay:10.37,2013-09-27 19:43:00,
2013-09-27 15:48:00,76.5,57.0,30.14,SE,146,0.0,0.0,51,0.00,CLR,,0.01,WeatherDisplay:10.37,2013-09-27 19:48:00,
2013-09-27 15:53:00,76.7,57.2,30.14,SE,142,0.0,0.0,51,0.00,CLR,,0.01,WeatherDisplay:10.37,2013-09-27 19:53:00,
2013-09-27 15:58:00,77.2,56.6,30.13,SE,142,1.1,0.0,49,0.00,CLR,,0.01,WeatherDisplay:10.37,2013-09-27 19:58:00,
2013-09-27 16:03:00,76.7,56.1,30.13,SE,140,1.1,1.1,49,0.00,CLR,,0.01,WeatherDisplay:10.37,2013-09-27 20:03:00,
2013-09-27 16:08:00,76.5,57.0,30.13,SE,138,0.0,0.0,51,0.00,CLR,,0.01,WeatherDisplay:10.37,2013-09-27 20:08:00,
2013-09-27 16:13:00,76.4,55.8,30.13,SE,128,0.0,0.0,49,0.00,CLR,,0.01,WeatherDisplay:10.37,2013-09-27 20:13:00,
2013-09-27 16:18:00,76.4,55.3,30.13,SE,128,3.5,3.5,48,0.00,CLR,,0.01,WeatherDisplay:10.37,2013-09-27 20:18:00,
2013-09-27 16:23:00,76.2,54.5,30.13,SE,130,2.3,2.3,47,0.00,CLR,,0.01,WeatherDisplay:10.37,2013-09-27 20:23:00,
2013-09-27 16:28:00,76.5,56.5,30.13,SE,130,0.0,0.0,50,0.00,CLR,,0.01,WeatherDisplay:10.37,2013-09-27 20:28:00,
2013-09-27 16:33:00,76.5,55.3,30.13,ESE,117,2.3,0.0,48,0.00,CLR,,0.01,WeatherDisplay:10.37,2013-09-27 20:33:00,
2013-09-27 16:38:00,76.6,56.0,30.13,ESE,117,1.1,0.0,49,0.00,CLR,,0.01,WeatherDisplay:10.37,2013-09-27 20:38:00,
2013-09-27 16:43:00,76.5,55.3,30.13,ESE,119,3.0,3.0,48,0.00,CLR,,0.01,WeatherDisplay:10.37,2013-09-27 20:43:00,
2013-09-27 16:48:00,76.2,55.6,30.13,ESE,117,3.5,3.5,49,0.00,CLR,,0.01,WeatherDisplay:10.37,2013-09-27 20:48:00,
2013-09-27 16:53:00,76.6,56.6,30.12,ESE,117,0.0,0.2,50,0.00,CLR,,0.01,WeatherDisplay:10.37,2013-09-27 20:53:00,
2013-09-27 16:58:00,76.8,56.2,30.12,ESE,117,1.1,0.0,49,0.00,CLR,,0.01,WeatherDisplay:10.37,2013-09-27 20:58:00,
2013-09-27 17:03:00,76.8,56.2,30.12,ESE,117,1.1,1.1,49,0.00,CLR,,0.01,WeatherDisplay:10.37,2013-09-27 21:03:00,
2013-09-27 17:08:00,76.6,56.0,30.12,ESE,117,0.0,0.0,49,0.00,CLR,,0.01,WeatherDisplay:10.37,2013-09-27 21:08:00,
2013-09-27 17:13:00,76.4,55.8,30.12,ESE,115,2.3,2.3,49,0.00,CLR,,0.01,WeatherDisplay:10.37,2013-09-27 21:13:00,
2013-09-27 17:18:00,75.8,56.4,30.12,ESE,110,0.0,0.1,51,0.00,CLR,,0.01,WeatherDisplay:10.37,2013-09-27 21:18:00,
2013-09-27 17:23:00,75.6,55.6,30.12,ESE,110,1.1,0.0,50,0.00,CLR,,0.01,WeatherDisplay:10.37,2013-09-27 21:23:00,
2013-09-27 17:28:00,75.6,56.2,30.12,ESE,110,0.0,0.0,51,0.00,CLR,,0.01,WeatherDisplay:10.37,2013-09-27 21:28:00,
2013-09-27 17:33:00,75.5,56.1,30.12,ESE,111,0.0,0.0,51,0.00,CLR,,0.01,WeatherDisplay:10.37,2013-09-27 21:33:00,
2013-09-27 17:38:00,75.8,57.4,30.12,ESE,110,1.1,1.1,53,0.00,CLR,,0.01,WeatherDisplay:10.37,2013-09-27 21:38:00,
2013-09-27 17:43:00,75.9,58.1,30.12,ESE,110,0.0,0.0,54,0.00,CLR,,0.01,WeatherDisplay:10.37,2013-09-27 21:43:00,
2013-09-27 17:48:00,75.7,57.9,30.12,ESE,110,0.0,0.0,54,0.00,CLR,,0.01,WeatherDisplay:10.37,2013-09-27 21:48:00,
2013-09-27 17:53:00,74.9,57.6,30.12,SE,128,3.5,3.5,55,0.00,CLR,,0.01,WeatherDisplay:10.37,2013-09-27 21:53:00,
2013-09-27 17:58:00,74.1,56.4,30.12,SE,128,1.1,1.1,54,0.00,CLR,,0.01,WeatherDisplay:10.37,2013-09-27 21:58:00,
2013-09-27 18:03:00,73.8,57.1,30.12,SE,128,0.0,0.0,56,0.00,CLR,,0.01,WeatherDisplay:10.37,2013-09-27 22:03:00,
2013-09-27 18:08:00,73.4,56.2,30.12,ESE,119,3.5,3.5,55,0.00,CLR,,0.01,WeatherDisplay:10.37,2013-09-27 22:08:00,
2013-09-27 18:13:00,73.1,57.4,30.12,ESE,118,0.0,0.0,58,0.00,CLR,,0.01,WeatherDisplay:10.37,2013-09-27 22:13:00,
2013-09-27 18:18:00,72.8,57.6,30.12,ESE,118,0.0,0.0,59,0.00,CLR,,0.01,WeatherDisplay:10.37,2013-09-27 22:18:00,
2013-09-27 18:23:00,72.4,58.2,30.12,ESE,118,0.0,0.0,61,0.00,CLR,,0.01,WeatherDisplay:10.37,2013-09-27 22:23:00,
2013-09-27 18:28:00,71.8,57.6,30.12,ESE,118,0.0,0.0,61,0.00,CLR,,0.01,WeatherDisplay:10.37,2013-09-27 22:28:00,
2013-09-27 18:33:00,71.2,57.1,30.12,ESE,118,0.0,0.0,61,0.00,CLR,,0.01,WeatherDisplay:10.37,2013-09-27 22:33:00,
2013-09-27 18:38:00,70.7,56.6,30.12,ESE,118,1.1,1.1,61,0.00,CLR,,0.01,WeatherDisplay:10.37,2013-09-27 22:38:00,
2013-09-27 18:43:00,70.2,57.0,30.12,ESE,118,0.0,0.0,63,0.00,CLR,,0.01,WeatherDisplay:10.37,2013-09-27 22:43:00,
2013-09-27 18:48:00,69.7,56.5,30.12,ESE,118,0.0,0.0,63,0.00,CLR,,0.01,WeatherDisplay:10.37,2013-09-27 22:48:00,
2013-09-27 18:53:00,69.2,56.5,30.12,ESE,118,0.0,0.0,64,0.00,CLR,,0.01,WeatherDisplay:10.37,2013-09-27 22:53:00,
2013-09-27 18:58:00,68.7,56.0,30.12,ESE,118,0.0,0.0,64,0.00,CLR,,0.01,WeatherDisplay:10.37,2013-09-27 22:58:00,
2013-09-27 19:03:00,68.3,55.6,30.12,ESE,118,0.0,0.0,64,0.00,CLR,,0.01,WeatherDisplay:10.37,2013-09-27 23:03:00,
2013-09-27 19:08:00,67.9,55.3,30.12,ESE,118,1.0,1.0,64,0.00,CLR,,0.01,WeatherDisplay:10.37,2013-09-27 23:08:00,
2013-09-27 19:13:00,67.4,55.2,30.12,ESE,117,1.1,1.1,65,0.00,CLR,,0.01,WeatherDisplay:10.37,2013-09-27 23:13:00,
2013-09-27 19:18:00,66.8,55.1,30.12,ESE,117,0.0,0.0,66,0.00,CLR,,0.01,WeatherDisplay:10.37,2013-09-27 23:18:00,
2013-09-27 19:23:00,66.3,54.6,30.12,ESE,117,0.0,0.0,66,0.00,CLR,,0.01,WeatherDisplay:10.37,2013-09-27 23:23:00,
2013-09-27 19:28:00,65.9,54.6,30.12,ESE,117,0.0,0.0,67,0.00,CLR,,0.01,WeatherDisplay:10.37,2013-09-27 23:28:00,
2013-09-27 19:33:00,65.4,54.6,30.11,ESE,117,0.0,0.0,68,0.00,CLR,,0.01,WeatherDisplay:10.37,2013-09-27 23:33:00,
2013-09-27 19:38:00,64.9,54.5,30.12,ESE,117,0.0,0.0,69,0.00,CLR,,0.01,WeatherDisplay:10.37,2013-09-27 23:38:00,
2013-09-27 19:43:00,64.5,54.5,30.11,ESE,117,0.0,0.0,70,0.00,CLR,,0.01,WeatherDisplay:10.37,2013-09-27 23:43:00,
2013-09-27 19:48:00,64.0,54.4,30.11,ESE,117,0.0,0.0,71,0.00,CLR,,0.01,WeatherDisplay:10.37,2013-09-27 23:48:00,
2013-09-27 19:53:00,63.5,54.7,30.11,ESE,117,0.0,0.0,73,0.00,CLR,,0.01,WeatherDisplay:10.37,2013-09-27 23:53:00,
2013-09-27 19:58:00,63.0,54.6,30.11,ESE,117,0.0,0.0,74,0.00,CLR,,0.01,WeatherDisplay:10.37,2013-09-27 23:58:00,
2013-09-27 20:03:00,62.4,54.4,30.12,ESE,117,0.0,0.0,75,0.00,CLR,,0.01,WeatherDisplay:10.37,2013-09-28 00:03:00,
2013-09-27 20:08:00,61.9,54.6,30.12,ESE,117,0.0,0.0,77,0.00,CLR,,0.01,WeatherDisplay:10.37,2013-09-28 00:08:00,
2013-09-27 20:13:00,61.4,54.5,30.12,ESE,117,0.0,0.0,78,0.00,CLR,,0.01,WeatherDisplay:10.37,2013-09-28 00:13:00,
2013-09-27 20:18:00,60.9,54.3,30.12,ESE,117,0.0,0.0,79,0.00,CLR,,0.01,WeatherDisplay:10.37,2013-09-28 00:18:00,
2013-09-27 20:23:00,60.3,54.1,30.13,ESE,117,0.0,0.0,80,0.00,CLR,,0.01,WeatherDisplay:10.37,2013-09-28 00:23:00,
2013-09-27 20:28:00,59.7,53.9,30.12,ESE,117,0.0,0.0,81,0.00,CLR,,0.01,WeatherDisplay:10.37,2013-09-28 00:28:00,
2013-09-27 20:33:00,59.0,53.5,30.12,ESE,117,0.0,0.0,82,0.00,CLR,,0.01,WeatherDisplay:10.37,2013-09-28 00:33:00,
2013-09-27 20:38:00,58.7,53.5,30.12,ESE,117,0.0,0.0,83,0.00,CLR,,0.01,WeatherDisplay:10.37,2013-09-28 00:38:00,
2013-09-27 20:43:00,58.2,53.4,30.12,ESE,117,0.0,0.0,84,0.00,CLR,,0.01,WeatherDisplay:10.37,2013-09-28 00:43:00,
2013-09-27 20:49:00,57.7,53.2,30.12,ESE,117,0.0,0.0,85,0.00,CLR,,0.01,WeatherDisplay:10.37,2013-09-28 00:49:00,
2013-09-27 20:54:00,57.3,53.1,30.13,ESE,117,0.0,0.0,86,0.00,CLR,,0.01,WeatherDisplay:10.37,2013-09-28 00:54:00,
2013-09-27 20:59:00,56.8,53.0,30.13,ESE,117,0.0,0.0,87,0.00,CLR,,0.01,WeatherDisplay:10.37,2013-09-28 00:59:00,
2013-09-27 21:04:00,56.5,53.0,30.12,ESE,117,0.0,0.0,88,0.00,CLR,,0.01,WeatherDisplay:10.37,2013-09-28 01:04:00,
2013-09-27 21:09:00,56.1,52.6,30.13,ESE,117,0.0,0.0,88,0.00,CLR,,0.01,WeatherDisplay:10.37,2013-09-28 01:09:00,
2013-09-27 21:14:00,55.8,52.6,30.13,ESE,117,0.0,0.0,89,0.00,CLR,,0.01,WeatherDisplay:10.37,2013-09-28 01:14:00,
2013-09-27 21:19:00,55.5,52.6,30.13,ESE,117,0.0,0.0,90,0.00,CLR,,0.01,WeatherDisplay:10.37,2013-09-28 01:19:00,
2013-09-27 21:24:00,55.3,52.4,30.13,ESE,117,0.0,0.0,90,0.00,CLR,,0.01,WeatherDisplay:10.37,2013-09-28 01:24:00,
2013-09-27 21:29:00,55.1,52.5,30.13,ESE,117,0.0,0.0,91,0.00,CLR,,0.01,WeatherDisplay:10.37,2013-09-28 01:29:00,
2013-09-27 21:34:00,54.8,52.2,30.13,ESE,117,0.0,0.0,91,0.00,CLR,,0.01,WeatherDisplay:10.37,2013-09-28 01:34:00,
2013-09-27 21:39:00,54.8,52.5,30.13,ESE,117,0.0,0.0,92,0.00,CLR,,0.01,WeatherDisplay:10.37,2013-09-28 01:39:00,
2013-09-27 21:44:00,54.8,52.8,30.13,ESE,117,0.0,0.0,93,0.00,CLR,,0.01,WeatherDisplay:10.37,2013-09-28 01:44:00,
2013-09-27 21:49:00,54.8,52.8,30.13,ESE,117,0.0,0.0,93,0.00,CLR,,0.01,WeatherDisplay:10.37,2013-09-28 01:49:00,
2013-09-27 21:54:00,55.0,53.3,30.13,ESE,117,0.0,0.0,94,0.00,CLR,,0.01,WeatherDisplay:10.37,2013-09-28 01:54:00,
2013-09-27 21:59:00,55.4,54.0,30.13,ESE,117,0.0,0.0,95,0.00,CLR,,0.01,WeatherDisplay:10.37,2013-09-28 01:59:00,
2013-09-27 22:04:00,55.8,54.4,30.13,ESE,117,0.0,0.0,95,0.00,CLR,,0.01,WeatherDisplay:10.37,2013-09-28 02:04:00,
2013-09-27 22:09:00,55.7,54.0,30.13,ESE,117,0.0,0.0,94,0.00,CLR,,0.01,WeatherDisplay:10.37,2013-09-28 02:09:00,
2013-09-27 22:14:00,55.4,53.7,30.13,ESE,117,0.0,0.0,94,0.00,CLR,,0.01,WeatherDisplay:10.37,2013-09-28 02:14:00,
2013-09-27 22:19:00,55.0,53.0,30.13,ESE,117,0.0,0.0,93,0.00,CLR,,0.01,WeatherDisplay:10.37,2013-09-28 02:19:00,
2013-09-27 22:24:00,54.8,53.1,30.14,ESE,117,0.0,0.0,94,0.00,CLR,,0.01,WeatherDisplay:10.37,2013-09-28 02:24:00,
2013-09-27 22:29:00,54.7,53.0,30.14,ESE,117,0.0,0.0,94,0.00,CLR,,0.01,WeatherDisplay:10.37,2013-09-28 02:29:00,
2013-09-27 22:34:00,54.6,52.9,30.14,ESE,117,0.0,0.0,94,0.00,CLR,,0.01,WeatherDisplay:10.37,2013-09-28 02:34:00,
2013-09-27 22:39:00,54.3,52.6,30.14,ESE,117,0.0,0.0,94,0.00,CLR,,0.01,WeatherDisplay:10.37,2013-09-28 02:39:00,
2013-09-27 22:44:00,54.0,52.3,30.14,ESE,117,0.0,0.0,94,0.00,CLR,,0.01,WeatherDisplay:10.37,2013-09-28 02:44:00,
2013-09-27 22:49:00,53.8,52.1,30.14,ESE,117,0.0,0.0,94,0.00,CLR,,0.01,WeatherDisplay:10.37,2013-09-28 02:49:00,
2013-09-27 22:54:00,53.7,52.0,30.14,ESE,117,0.0,0.0,94,0.00,CLR,,0.01,WeatherDisplay:10.37,2013-09-28 02:54:00,
2013-09-27 22:59:00,53.6,51.9,30.14,ESE,117,0.0,0.0,94,0.00,CLR,,0.01,WeatherDisplay:10.37,2013-09-28 02:59:00,
2013-09-27 23:04:00,53.5,52.1,30.14,ESE,117,0.0,0.0,95,0.00,CLR,,0.01,WeatherDisplay:10.37,2013-09-28 03:04:00,
2013-09-27 23:09:00,53.3,51.6,30.14,ESE,117,0.0,0.0,94,0.00,CLR,,0.01,WeatherDisplay:10.37,2013-09-28 03:09:00,
2013-09-27 23:14:00,53.1,51.7,30.15,ESE,117,0.0,0.0,95,0.00,CLR,,0.01,WeatherDisplay:10.37,2013-09-28 03:14:00,
2013-09-27 23:20:00,53.0,51.6,30.15,ESE,117,0.0,0.0,95,0.00,CLR,,0.01,WeatherDisplay:10.37,2013-09-28 03:20:00,
2013-09-27 23:25:00,52.8,51.4,30.15,ESE,117,0.0,0.0,95,0.00,CLR,,0.01,WeatherDisplay:10.37,2013-09-28 03:25:00,
2013-09-27 23:30:00,52.6,51.2,30.14,ESE,117,0.0,0.0,95,0.00,CLR,,0.01,WeatherDisplay:10.37,2013-09-28 03:30:00,
2013-09-27 23:35:00,52.5,51.1,30.14,ESE,117,0.0,0.0,95,0.00,CLR,,0.01,WeatherDisplay:10.37,2013-09-28 03:35:00,
2013-09-27 23:40:00,52.6,51.2,30.14,ESE,117,0.0,0.0,95,0.00,CLR,,0.01,WeatherDisplay:10.37,2013-09-28 03:40:00,
2013-09-27 23:45:00,52.5,51.1,30.15,ESE,117,0.0,0.0,95,0.00,CLR,,0.01,WeatherDisplay:10.37,2013-09-28 03:45:00,
2013-09-27 23:50:00,52.5,51.1,30.14,ESE,117,0.0,0.0,95,0.00,CLR,,0.01,WeatherDisplay:10.37,2013-09-28 03:50:00,
2013-09-27 23:55:00,52.5,51.1,30.14,ESE,117,0.0,0.0,95,0.00,CLR,,0.01,WeatherDisplay:10.37,2013-09-28 03:55:00,